Coral Ruby — 3ERR6 — position and weather

sailwx.info

Track history (hours):
 
Tides and Currents Weather Stations Pressure Air Temp Water Temp Dewpoint Dewpoint Depression Visibility Wind Speed Wind Dir Waves Ship Positions

Coral Ruby

Last reported at 2015-May-27 21:30 UTC. Time now 2015-May-27 21:58 UTC.
Position S 32°54' E 151°46'.

Length 225 m; draft 7.6 m.

Type: Ship. MMSI: 370150000.

Date/timePositionNaut miles runAvg speedWind from/ knotsBaromVisibWave heightAir tempDewpointWater temp
2015-May-27 21:30S 32°54' E 151°46'0 0.0
2015-May-27 20:33S 32°54' E 151°46'0 0.0
2015-May-27 19:33S 32°54' E 151°46'0 0.0
2015-May-27 18:33S 32°54' E 151°46'0 0.0
2015-May-27 17:33S 32°54' E 151°46'0 0.0
2015-May-27 16:33S 32°54' E 151°46'0 0.0
2015-May-27 15:33S 32°54' E 151°46'0 0.1
2015-May-27 14:33S 32°54' E 151°46'0 0.1
2015-May-27 13:33S 32°54' E 151°46'0 0.0
2015-May-27 12:33S 32°54' E 151°46'0 0.0
2015-May-27 11:33S 32°54' E 151°46'0 0.0
2015-May-27 10:33S 32°54' E 151°46'0 0.0
2015-May-27 09:33S 32°54' E 151°46'0 0.0
2015-May-27 08:33S 32°54' E 151°46'0 0.0
2015-May-27 07:33S 32°54' E 151°46'3 3.2
2015-May-27 06:33S 32°55' E 151°50'7 7.4
2015-May-27 05:33S 33°03' E 151°51'5 2.4
2015-May-27 03:17S 33°05' E 151°45'0 0.0
2015-May-27 01:17S 33°05' E 151°45'0 0.0
2015-May-26 23:20S 33°05' E 151°45'0 0.0
2015-May-26 22:29S 33°05' E 151°45'0 0.1
2015-May-26 21:32S 33°05' E 151°45'0 0.0
2015-May-26 20:26S 33°05' E 151°45'0 0.0
2015-May-26 19:29S 33°05' E 151°45'0 0.0
2015-May-26 18:23S 33°05' E 151°45'0 0.0
2015-May-26 17:32S 33°05' E 151°45'0 0.0
2015-May-26 15:17S 33°05' E 151°45'0 0.1
2015-May-26 14:29S 33°05' E 151°45'0 0.0
2015-May-26 13:23S 33°05' E 151°45'0 0.0
2015-May-26 12:29S 33°05' E 151°45'0 0.0
2015-May-26 07:32S 33°05' E 151°45'0 0.0
2015-May-26 06:08S 33°05' E 151°45'0 0.0
2015-May-26 04:23S 33°05' E 151°45'0 0.0
2015-May-26 02:14S 33°05' E 151°45'0 0.0
2015-May-26 01:29S 33°05' E 151°45'0 0.0
2015-May-26 00:32S 33°05' E 151°45'0 0.0
2015-May-25 23:32S 33°05' E 151°45'0 0.0
2015-May-25 22:23S 33°05' E 151°45'0 0.2
2015-May-25 21:29S 33°05' E 151°45'0 0.1
2015-May-25 20:29S 33°05' E 151°45'0 0.0
2015-May-25 19:23S 33°05' E 151°45'0 0.2
2015-May-25 18:23S 33°05' E 151°45'0 0.1
2015-May-25 17:29S 33°05' E 151°45'0 0.0
2015-May-25 16:23S 33°05' E 151°45'0 0.0
2015-May-25 15:14S 33°05' E 151°45'0 0.0
2015-May-25 14:23S 33°05' E 151°45'0 0.0
2015-May-25 13:23S 33°05' E 151°45'0 0.0
2015-May-25 12:32S 33°05' E 151°45'0 0.0
2015-May-25 11:29S 33°05' E 151°45'0 0.0
2015-May-25 10:32S 33°05' E 151°45'0 0.0
2015-May-25 08:20S 33°05' E 151°45'0 0.0
2015-May-25 05:11S 33°05' E 151°45'0 0.0
2015-May-25 02:23S 33°05' E 151°45'0 0.0
2015-May-25 01:20S 33°05' E 151°45'0 0.0
2015-May-25 00:32S 33°05' E 151°45'0 0.1
2015-May-24 23:29S 33°05' E 151°45'0 0.1
2015-May-24 22:32S 33°05' E 151°45'0 0.0
2015-May-24 21:29S 33°05' E 151°45'0 0.0
2015-May-24 20:26S 33°05' E 151°45'0 0.1
2015-May-24 19:29S 33°05' E 151°45'0 0.0
2015-May-24 18:32S 33°05' E 151°45'0 0.0
2015-May-24 17:29S 33°05' E 151°45'0 0.0
2015-May-24 16:32S 33°05' E 151°45'0 0.1
2015-May-24 15:32S 33°05' E 151°45'0 0.1
2015-May-24 14:32S 33°05' E 151°45'0 0.0
2015-May-24 13:32S 33°05' E 151°45'0 0.1
2015-May-24 12:32S 33°05' E 151°45'0 0.0
2015-May-24 11:32S 33°05' E 151°45'0 0.0
2015-May-24 10:23S 33°05' E 151°45'0 0.0
2015-May-24 09:23S 33°05' E 151°45'0 0.0
2015-May-24 07:23S 33°05' E 151°45'0 0.0
2015-May-24 06:29S 33°05' E 151°45'0 0.1
2015-May-24 04:28S 33°05' E 151°45'7 7.0
2015-May-24 03:31S 33°11' E 151°49'6 4.0
2015-May-24 02:05S 33°14' E 151°54'2 1.4
2015-May-24 00:26S 33°15' E 151°57'1 1.2
2015-May-23 23:20S 33°16' E 151°58'8 3.0
2015-May-23 20:33S 33°11' E 152°06'1010.1
2015-May-23 19:33S 33°05' E 152°16'10 9.8
2015-May-23 18:34S 32°56' E 152°21'1010.2
2015-May-23 17:34S 32°47' E 152°27'10 9.7
2015-May-23 16:33S 32°38' E 152°33'10 9.6
2015-May-23 15:34S 32°30' E 152°39'  
2015-May-19 15:18S 27°40' E 154°11'6212.3
2015-May-19 10:18S 26°38' E 154°06'1012.3
2015-May-19 09:31S 26°29' E 154°06'1212.2
2015-May-19 08:31S 26°17' E 154°09'1212.5
2015-May-19 07:33S 26°04' E 154°09'1312.6
2015-May-19 06:29S 25°51' E 154°09'1712.7
2015-May-19 05:11S 25°34' E 154°09'1013.2
2015-May-19 04:26S 25°25' E 154°09'  
Track history (hours):
 
Tides and Currents Weather Stations Pressure Air Temp Water Temp Dewpoint Dewpoint Depression Visibility Wind Speed Wind Dir Waves Ship Positions

Coral Ruby

Last reported at 2015-May-27 21:30 UTC. Time now 2015-May-27 21:58 UTC.
Position S 32°54' E 151°46'.

Length 225 m; draft 7.6 m.

Type: Ship. MMSI: 370150000.

Date/timePositionNaut miles runAvg speedWind from/ knotsBaromVisibWave heightAir tempDewpointWater temp
2015-May-27 21:30S 32°54' E 151°46'0 0.0
2015-May-27 20:33S 32°54' E 151°46'0 0.0
2015-May-27 19:33S 32°54' E 151°46'0 0.0
2015-May-27 18:33S 32°54' E 151°46'0 0.0
2015-May-27 17:33S 32°54' E 151°46'0 0.0
2015-May-27 16:33S 32°54' E 151°46'0 0.0
2015-May-27 15:33S 32°54' E 151°46'0 0.1
2015-May-27 14:33S 32°54' E 151°46'0 0.1
2015-May-27 13:33S 32°54' E 151°46'0 0.0
2015-May-27 12:33S 32°54' E 151°46'0 0.0
2015-May-27 11:33S 32°54' E 151°46'0 0.0
2015-May-27 10:33S 32°54' E 151°46'0 0.0
2015-May-27 09:33S 32°54' E 151°46'0 0.0
2015-May-27 08:33S 32°54' E 151°46'0 0.0
2015-May-27 07:33S 32°54' E 151°46'3 3.2
2015-May-27 06:33S 32°55' E 151°50'7 7.4
2015-May-27 05:33S 33°03' E 151°51'5 2.4
2015-May-27 03:17S 33°05' E 151°45'0 0.0
2015-May-27 01:17S 33°05' E 151°45'0 0.0
2015-May-26 23:20S 33°05' E 151°45'0 0.0
2015-May-26 22:29S 33°05' E 151°45'0 0.1
2015-May-26 21:32S 33°05' E 151°45'0 0.0
2015-May-26 20:26S 33°05' E 151°45'0 0.0
2015-May-26 19:29S 33°05' E 151°45'0 0.0
2015-May-26 18:23S 33°05' E 151°45'0 0.0
2015-May-26 17:32S 33°05' E 151°45'0 0.0
2015-May-26 15:17S 33°05' E 151°45'0 0.1
2015-May-26 14:29S 33°05' E 151°45'0 0.0
2015-May-26 13:23S 33°05' E 151°45'0 0.0
2015-May-26 12:29S 33°05' E 151°45'0 0.0
2015-May-26 07:32S 33°05' E 151°45'0 0.0
2015-May-26 06:08S 33°05' E 151°45'0 0.0
2015-May-26 04:23S 33°05' E 151°45'0 0.0
2015-May-26 02:14S 33°05' E 151°45'0 0.0
2015-May-26 01:29S 33°05' E 151°45'0 0.0
2015-May-26 00:32S 33°05' E 151°45'0 0.0
2015-May-25 23:32S 33°05' E 151°45'0 0.0
2015-May-25 22:23S 33°05' E 151°45'0 0.2
2015-May-25 21:29S 33°05' E 151°45'0 0.1
2015-May-25 20:29S 33°05' E 151°45'0 0.0
2015-May-25 19:23S 33°05' E 151°45'0 0.2
2015-May-25 18:23S 33°05' E 151°45'0 0.1
2015-May-25 17:29S 33°05' E 151°45'0 0.0
2015-May-25 16:23S 33°05' E 151°45'0 0.0
2015-May-25 15:14S 33°05' E 151°45'0 0.0
2015-May-25 14:23S 33°05' E 151°45'0 0.0
2015-May-25 13:23S 33°05' E 151°45'0 0.0
2015-May-25 12:32S 33°05' E 151°45'0 0.0
2015-May-25 11:29S 33°05' E 151°45'0 0.0
2015-May-25 10:32S 33°05' E 151°45'0 0.0
2015-May-25 08:20S 33°05' E 151°45'0 0.0
2015-May-25 05:11S 33°05' E 151°45'0 0.0
2015-May-25 02:23S 33°05' E 151°45'0 0.0
2015-May-25 01:20S 33°05' E 151°45'0 0.0
2015-May-25 00:32S 33°05' E 151°45'0 0.1
2015-May-24 23:29S 33°05' E 151°45'0 0.1
2015-May-24 22:32S 33°05' E 151°45'0 0.0
2015-May-24 21:29S 33°05' E 151°45'0 0.0
2015-May-24 20:26S 33°05' E 151°45'0 0.1
2015-May-24 19:29S 33°05' E 151°45'0 0.0
2015-May-24 18:32S 33°05' E 151°45'0 0.0
2015-May-24 17:29S 33°05' E 151°45'0 0.0
2015-May-24 16:32S 33°05' E 151°45'0 0.1
2015-May-24 15:32S 33°05' E 151°45'0 0.1
2015-May-24 14:32S 33°05' E 151°45'0 0.0
2015-May-24 13:32S 33°05' E 151°45'0 0.1
2015-May-24 12:32S 33°05' E 151°45'0 0.0
2015-May-24 11:32S 33°05' E 151°45'0 0.0
2015-May-24 10:23S 33°05' E 151°45'0 0.0
2015-May-24 09:23S 33°05' E 151°45'0 0.0
2015-May-24 07:23S 33°05' E 151°45'0 0.0
2015-May-24 06:29S 33°05' E 151°45'0 0.1
2015-May-24 04:28S 33°05' E 151°45'7 7.0
2015-May-24 03:31S 33°11' E 151°49'6 4.0
2015-May-24 02:05S 33°14' E 151°54'2 1.4
2015-May-24 00:26S 33°15' E 151°57'1 1.2
2015-May-23 23:20S 33°16' E 151°58'8 3.0
2015-May-23 20:33S 33°11' E 152°06'1010.1
2015-May-23 19:33S 33°05' E 152°16'10 9.8
2015-May-23 18:34S 32°56' E 152°21'1010.2
2015-May-23 17:34S 32°47' E 152°27'10 9.7
2015-May-23 16:33S 32°38' E 152°33'10 9.6
2015-May-23 15:34S 32°30' E 152°39'  
2015-May-19 15:18S 27°40' E 154°11'6212.3
2015-May-19 10:18S 26°38' E 154°06'1012.3
2015-May-19 09:31S 26°29' E 154°06'1212.2
2015-May-19 08:31S 26°17' E 154°09'1212.5
2015-May-19 07:33S 26°04' E 154°09'1312.6
2015-May-19 06:29S 25°51' E 154°09'1712.7
2015-May-19 05:11S 25°34' E 154°09'1013.2
2015-May-19 04:26S 25°25' E 154°09'  

Dump ship's entire track history